05:03
Airports
History
Links
Donate
Help keep this website running!
PayPal
Bitcoin
This page is community maintained. The information is intended for PC simulator navigation or reference.
Always use approved charts for navigation.
ETNG
GEILENKIRCHEN
GEILENKIRCHEN (ETNG)
Geilenkirchen, Nordrhein-Westfalen, Germany (52511)
(C)
Lat/Lng:50° 57' 39" N / 6° 2' 30.3" E
50.960834 / 6.04175
Elevation:296'ft / 90mMSL
ID / ICAO:ETNG
Runways:1
Longest:09-27
Concrete 3,042m / 9,979ft
Controlled:Yes
METAR04:50 GMT 2017-09-21
Altimeter: 30.15
Visibility: 6.2 statute miles
Wind: 5 knots (from 170°)
Temp: 10°c / 50°f
Humidity: 81.6%

METAR: ETNG 210450Z 17005KT CAVOK 10/07 Q1021

(Powered by phpweather)
Airport Radio Frequencies
Tower: 122.1
Approach: 123.3, 123.72, 128.5
Nearby VORs <50NM
Nearby NDBs
Runway 09 / 27
Dimensions:3041.7 x 44.8m 9979' x 147'ft
Surface:Concrete
Edge Lights:High intensity
Runway 09 [A]Runway 27 [B]
Heading:090°TH 270°TH
Lat:
Lng:
50° 57' 39.65"N
6° 1' 12.15"E
50° 57' 38.35"N
6° 3' 48.45"E
ALS:MALSMALS
User Notes and Comments
50° 57' 39" N / 6° 2' 30.3" E
Distance To
Airport ID:
Nearby Airports
(U) Aachen Merzbruck 11.4 NM
EDKA SE 146°
(C) Maastricht 12.3 NM
EHBK ( WX ) WSW 253°
(U) Zutendaal 19.7 NM
EBSL W 267°
(U) Genk Zwartberg 22.9 NM
EBZW W 279°
(C) Monchengladbach 27.4 NM
EDLN ( WX ) NE 47°
(U) Budel 27.9 NM
EHBD NW 316°
(C) NORVENICH 28.3 NM
ETNN ( WX ) ESE 108°
VFR Chart
Flight Planning at SkyVector.com